You are not logged in, Click here to log in
ICAO: RPLL Country: 菲律賓馬尼拉
Latitude: 14.5123 Longitude: 121.017
Total Arrivals: 107 Total Departures: 108
Latest Arrival: BR271 (RCTP-RPLL)鈺友. 陳 Latest Departure: CI5880 (RPLL-RCTP)Jackie. Kung
Scenery:
METAR : RPLL 180700Z 26016KT 9999 FEW025 31/26 Q1007 NOSIG RMK A2974

尼諾伊·艾奎諾國際機場MNL